Hurricane, UT (84737)

5:09 AM MST on January 28, 2015 (GMT -0700)
Apple Valley Ranch | Change Station
CLOSE
Current Station
Personal Weather Station
Location: Apple Valley, UT
Elevation: 4738 ft
Nearby Weather Stations

Elev 4738 ft 37.11 °N, 113.13 °W | Updated 6 minutes ago

Overcast
Overcast
33.6 °F
Feels Like 30 °F
N
3.8
Wind Variable Wind from East

Today
High -- | Low -- °F
--% Chance of Precip.
Yesterday
High -- | Low -- °F
Precip. -- in
7:38 AM 5:52 PM
Waxing Gibbous, 64% visible
Pressure 30.23 in
Visibility 10.0 miles
Clouds Clear
Windchill 30 °F
Dew Point 33 °F
Humidity 99%
Rainfall 0.00 in
Snow Depth Not available.
UV 0 out of 12
Pollen 4.20 out of 12
Air Quality Not available.
Flu Activity Not available.
METAR KCDC 281153Z AUTO 00000KT 10SM CLR M02/M03 A3025 RMK AO2 SLP235 70003 T10171028 10028 21017 55001

More Conditions Fewer Conditions

Pressure 30.23 in
Visibility 10.0 miles
Clouds Clear
Windchill 30 °F
Dew Point 33 °F
Humidity 99%
Rainfall 0.00 in
Snow Depth Not available.
UV 0 out of 12
Pollen 4.20 out of 12
Air Quality Not available.
Flu Activity Not available.
METAR KCDC 281153Z AUTO 00000KT 10SM CLR M02/M03 A3025 RMK AO2 SLP235 70003 T10171028 10028 21017 55001

More Conditions Fewer Conditions

10-Day Weather Forecast

Almanac

Astronomy

Jan. 28, 2015 Rise Set
Actual Time
Civil Twilight
Nautical Twilight
Astronomical Twilight
Moon
Length of Visible Light
Length of Day
Tomorrow will be .
, % of the Moon is Illuminated

Today's Extremes

State Highs State Lows

Community

WunderPhotos

Upload Photos

1,791,127 photos uploaded!

WunderBlogs® & News

Nearby

Air Quality

  Air Quality AQ Index Pollutant
Not available.

Snow Depth

Station Depth Elevation

Earthquake Activity

City Distance Mag. Time & Date
Minimum magnitude displayed is 2.5.

Coastal Water Temperatures

Place Temperature

Nearby Weather Stations